createdAt,value
2022-12-23T00:03:39.507Z,3.44
2022-12-23T00:07:16.224Z,3.42
2022-12-23T00:10:57.392Z,3.41
2022-12-23T00:15:05.882Z,3.43
2022-12-23T00:18:28.857Z,3.43
2022-12-23T00:22:06.351Z,3.47
2022-12-23T00:25:45.369Z,3.48
2022-12-23T00:29:21.578Z,3.47
2022-12-23T00:32:59.402Z,3.45
2022-12-23T00:36:55.695Z,3.42
2022-12-23T00:40:37.048Z,3.42
2022-12-23T00:44:19.311Z,3.40
2022-12-23T00:48:02.411Z,3.41
2022-12-23T00:51:25.416Z,3.40
2022-12-23T00:55:03.355Z,3.39
2022-12-23T00:58:59.663Z,3.43
2022-12-23T01:02:41.477Z,3.47
2022-12-23T01:06:04.881Z,3.47
2022-12-23T01:09:42.208Z,3.49
2022-12-23T01:13:20.130Z,3.49
2022-12-23T01:16:57.806Z,3.50
2022-12-23T01:20:38.875Z,3.53
2022-12-23T01:24:13.174Z,3.57
2022-12-23T01:27:50.501Z,3.63
2022-12-23T01:31:47.483Z,3.66
2022-12-23T01:35:09.851Z,3.64
2022-12-23T01:39:06.538Z,3.63
2022-12-23T01:42:43.622Z,3.60
2022-12-23T01:46:07.121Z,3.61
2022-12-23T01:49:44.564Z,3.63
2022-12-23T01:53:34.717Z,3.64
2022-12-23T01:57:19.432Z,3.68
2022-12-23T02:01:20.343Z,3.71
2022-12-23T02:05:02.219Z,3.72
2022-12-23T02:08:43.792Z,3.67
2022-12-23T02:12:28.128Z,3.66
2022-12-23T02:16:17.824Z,3.64
2022-12-23T02:20:27.287Z,3.65
2022-12-23T02:24:23.565Z,3.65
2022-12-23T02:28:23.043Z,3.66
2022-12-23T02:32:15.266Z,3.61
2022-12-23T02:36:10.788Z,3.55
2022-12-23T02:40:08.751Z,3.51
2022-12-23T02:43:49.455Z,3.50
2022-12-23T02:47:20.337Z,3.49
2022-12-23T02:51:14.016Z,3.46
2022-12-23T02:55:01.088Z,3.40
2022-12-23T02:58:50.286Z,3.37
2022-12-23T03:02:35.275Z,3.35
2022-12-23T03:05:57.911Z,3.31
2022-12-23T03:09:48.095Z,3.24
2022-12-23T03:13:44.129Z,3.16
2022-12-23T03:17:56.866Z,3.11
2022-12-23T03:21:53.043Z,3.07
2022-12-23T03:25:41.421Z,3.04
2022-12-23T03:29:43.836Z,3.01
2022-12-23T03:33:34.261Z,2.95
2022-12-23T03:37:00.913Z,2.93
2022-12-23T03:40:47.283Z,2.88
2022-12-23T03:45:10.731Z,2.85
2022-12-23T03:48:37.670Z,2.85
2022-12-23T03:52:21.200Z,2.82
2022-12-23T03:55:55.499Z,2.79
2022-12-23T03:59:45.092Z,2.76
2022-12-23T04:03:19.702Z,2.73
2022-12-23T04:07:06.877Z,2.71
2022-12-23T04:10:31.184Z,2.71
2022-12-23T04:14:07.667Z,2.68
2022-12-23T04:17:44.985Z,2.66
2022-12-23T04:21:22.435Z,2.66
2022-12-23T04:25:00.122Z,2.61
2022-12-23T04:28:56.529Z,2.58
2022-12-23T04:32:37.772Z,2.58
2022-12-23T04:36:01.023Z,2.63
2022-12-23T04:39:56.695Z,2.65
2022-12-23T04:43:37.555Z,2.65
2022-12-23T04:46:59.696Z,2.66
2022-12-23T04:50:37.141Z,2.65
2022-12-23T04:54:33.972Z,2.67
2022-12-23T04:58:15.142Z,2.70
2022-12-23T05:01:37.379Z,2.73
2022-12-23T05:05:14.745Z,2.75
2022-12-23T05:08:52.703Z,2.76
2022-12-23T05:12:49.130Z,2.79
2022-12-23T05:16:11.513Z,2.80
2022-12-23T05:19:48.919Z,2.84
2022-12-23T05:23:26.708Z,2.87
2022-12-23T05:27:04.261Z,2.91
2022-12-23T05:31:07.097Z,2.96
2022-12-23T05:34:29.252Z,2.99
2022-12-23T05:38:26.279Z,3.02
2022-12-23T05:42:07.097Z,3.10
2022-12-23T05:45:49.566Z,3.16
2022-12-23T05:49:12.251Z,3.21
2022-12-23T05:52:50.170Z,3.23
2022-12-23T05:56:46.363Z,3.26
2022-12-23T06:00:28.562Z,3.30
2022-12-23T06:03:50.503Z,3.32
2022-12-23T06:07:28.340Z,3.37
2022-12-23T06:11:24.822Z,3.40
2022-12-23T06:14:47.336Z,3.40
2022-12-23T06:18:24.464Z,3.41
2022-12-23T06:22:02.323Z,3.42
2022-12-23T06:25:39.828Z,3.41
2022-12-23T06:29:17.844Z,3.41
2022-12-23T06:32:55.874Z,3.42
2022-12-23T06:36:33.150Z,3.42
2022-12-23T06:40:30.128Z,3.43
2022-12-23T06:43:54.448Z,3.42
2022-12-23T06:47:49.278Z,3.45
2022-12-23T06:51:12.841Z,3.50
2022-12-23T06:54:49.325Z,3.52
2022-12-23T06:58:46.186Z,3.50
2022-12-23T07:02:11.757Z,3.49
2022-12-23T07:05:50.099Z,3.49
2022-12-23T07:09:42.729Z,3.49
2022-12-23T07:13:06.050Z,3.50
2022-12-23T07:17:01.816Z,3.53
2022-12-23T07:20:43.854Z,3.54
2022-12-23T07:24:07.235Z,3.55
2022-12-23T07:27:44.813Z,3.55
2022-12-23T07:31:24.257Z,3.57
2022-12-23T07:34:59.624Z,3.57
2022-12-23T07:38:37.154Z,3.59
2022-12-23T07:46:00.750Z,3.54
2022-12-23T07:49:55.140Z,3.53
2022-12-23T07:53:17.610Z,3.55
2022-12-23T07:56:57.709Z,3.59
2022-12-23T08:00:34.372Z,3.61
2022-12-23T08:04:10.829Z,3.63
2022-12-23T08:07:50.169Z,3.65
2022-12-23T08:11:45.348Z,3.65
2022-12-23T08:15:26.772Z,3.64
2022-12-23T08:18:49.739Z,3.66
2022-12-23T08:22:27.603Z,3.68
2022-12-23T08:26:19.735Z,3.69
2022-12-23T08:29:43.094Z,3.74
2022-12-23T08:33:21.376Z,3.78
2022-12-23T08:36:58.688Z,3.82
2022-12-23T08:40:40.539Z,3.85
2022-12-23T08:44:15.133Z,3.91
2022-12-23T08:47:52.399Z,3.97
2022-12-23T08:51:48.953Z,4.06
2022-12-23T08:55:12.072Z,4.15
2022-12-23T08:59:18.706Z,4.24
2022-12-23T09:02:42.128Z,4.28
2022-12-23T09:06:29.643Z,4.35
2022-12-23T09:09:57.246Z,4.39
2022-12-23T09:13:35.809Z,4.44
2022-12-23T09:17:32.652Z,4.49
2022-12-23T09:21:03.059Z,4.53
2022-12-23T09:24:33.208Z,4.53
2022-12-23T09:28:10.380Z,4.53
2022-12-23T09:31:49.654Z,4.53
2022-12-23T09:35:45.174Z,4.56
2022-12-23T09:39:07.810Z,4.56
2022-12-23T09:43:04.528Z,4.57
2022-12-23T09:46:32.560Z,4.56
2022-12-23T09:50:33.695Z,4.57
2022-12-23T09:54:30.945Z,4.59
2022-12-23T09:58:06.151Z,4.69
2022-12-23T10:01:44.809Z,4.81
2022-12-23T10:05:14.448Z,4.89
2022-12-23T10:08:50.356Z,4.91
2022-12-23T10:12:39.508Z,4.96
2022-12-23T10:16:20.425Z,5.00
2022-12-23T10:19:48.561Z,5.06
2022-12-23T10:23:36.959Z,5.11
2022-12-23T10:27:15.408Z,5.18
2022-12-23T10:34:57.790Z,5.23
2022-12-23T10:38:48.548Z,5.24
2022-12-23T10:42:13.876Z,5.22
2022-12-23T10:46:01.437Z,5.23
2022-12-23T10:49:45.376Z,5.23
2022-12-23T10:53:13.472Z,5.21
2022-12-23T10:57:06.788Z,5.20
2022-12-23T11:00:53.563Z,5.21
2022-12-23T11:04:19.710Z,5.24
2022-12-23T11:07:55.103Z,5.31
2022-12-23T11:11:58.606Z,5.34
2022-12-23T11:15:40.707Z,5.38
2022-12-23T11:19:06.746Z,5.47
2022-12-23T11:23:00.048Z,5.51
2022-12-23T11:26:24.809Z,5.51
2022-12-23T11:30:01.860Z,5.53
2022-12-23T11:33:56.787Z,5.53
2022-12-23T11:37:42.608Z,5.54
2022-12-23T11:41:05.678Z,5.57
2022-12-23T11:44:46.498Z,5.57
2022-12-23T11:48:29.094Z,5.57
2022-12-23T11:52:10.635Z,5.59
2022-12-23T11:55:36.661Z,5.61
2022-12-23T11:59:43.564Z,5.56
2022-12-23T12:03:14.944Z,5.54
2022-12-23T12:06:49.752Z,5.52
2022-12-23T12:10:27.852Z,5.52
2022-12-23T12:14:30.465Z,5.53
2022-12-23T12:17:56.178Z,5.54
2022-12-23T12:21:52.936Z,5.59
2022-12-23T12:25:48.826Z,5.64
2022-12-23T12:29:46.395Z,5.67
2022-12-23T12:33:25.752Z,5.67
2022-12-23T12:36:55.145Z,5.68
2022-12-23T12:40:31.586Z,5.69
2022-12-23T12:44:30.395Z,5.72
2022-12-23T12:48:28.803Z,5.75
2022-12-23T12:52:10.169Z,5.75
2022-12-23T12:55:39.855Z,5.75
2022-12-23T12:59:18.974Z,5.77
2022-12-23T13:03:21.867Z,5.82
2022-12-23T13:07:54.505Z,5.88
2022-12-23T13:11:53.689Z,5.98
2022-12-23T13:15:24.656Z,5.93
2022-12-23T13:19:02.493Z,5.95
2022-12-23T13:22:35.113Z,5.95
2022-12-23T13:26:20.199Z,5.94
2022-12-23T13:30:02.376Z,5.93
2022-12-23T13:33:57.306Z,5.94
2022-12-23T13:37:32.029Z,6.02
2022-12-23T13:41:16.855Z,6.01
2022-12-23T13:44:40.633Z,6.03
2022-12-23T13:48:26.637Z,6.17
2022-12-23T13:52:01.160Z,6.16
2022-12-23T13:55:46.778Z,6.07
2022-12-23T13:59:13.101Z,6.02
2022-12-23T14:03:14.554Z,5.98
2022-12-23T14:06:37.539Z,5.94
2022-12-23T14:10:22.704Z,5.88
2022-12-23T14:14:23.084Z,5.85
2022-12-23T14:18:25.368Z,5.80
2022-12-23T14:22:03.795Z,5.76
2022-12-23T14:26:03.044Z,5.71
2022-12-23T14:29:44.555Z,5.72
2022-12-23T14:33:36.784Z,5.68
2022-12-23T14:37:21.925Z,5.66
2022-12-23T14:40:55.433Z,5.66
2022-12-23T14:44:37.827Z,5.65
2022-12-23T14:48:41.980Z,5.62
2022-12-23T14:52:45.892Z,5.61
2022-12-23T14:56:37.499Z,5.57
2022-12-23T15:00:02.795Z,5.56
2022-12-23T15:03:43.501Z,5.55
2022-12-23T15:07:26.465Z,5.51
2022-12-23T15:10:54.079Z,5.49
2022-12-23T15:14:43.976Z,5.50
2022-12-23T15:18:27.897Z,5.48
2022-12-23T15:21:59.643Z,5.47
2022-12-23T15:25:48.692Z,5.45
2022-12-23T15:29:15.029Z,5.43
2022-12-23T15:32:53.937Z,5.39
2022-12-23T15:36:32.309Z,5.36
2022-12-23T15:40:12.182Z,5.32
2022-12-23T15:44:01.050Z,5.30
2022-12-23T15:47:31.305Z,5.27
2022-12-23T15:51:11.616Z,5.26
2022-12-23T15:54:53.189Z,5.24
2022-12-23T15:58:23.314Z,5.26
2022-12-23T16:01:55.348Z,5.25
2022-12-23T16:05:50.810Z,5.26
2022-12-23T16:09:36.984Z,5.24
2022-12-23T16:12:59.202Z,5.24
2022-12-23T16:17:07.851Z,5.25
2022-12-23T16:20:30.457Z,5.27
2022-12-23T16:24:26.411Z,5.30
2022-12-23T16:28:22.429Z,5.29
2022-12-23T16:31:52.158Z,5.20
2022-12-23T16:35:42.693Z,5.16
2022-12-23T16:39:22.943Z,5.14
2022-12-23T16:42:45.774Z,5.11
2022-12-23T16:46:24.046Z,5.11
2022-12-23T16:50:19.826Z,5.11
2022-12-23T16:53:42.321Z,5.11
2022-12-23T16:57:19.658Z,5.07
2022-12-23T17:01:24.202Z,5.06
2022-12-23T17:05:07.152Z,5.06
2022-12-23T17:08:28.959Z,5.11
2022-12-23T17:12:06.854Z,5.15
2022-12-23T17:15:45.496Z,5.16
2022-12-23T17:19:29.067Z,5.17
2022-12-23T17:23:00.462Z,5.21
2022-12-23T17:26:57.068Z,5.24
2022-12-23T17:30:24.870Z,5.24
2022-12-23T17:34:22.971Z,5.19
2022-12-23T17:37:48.262Z,5.15
2022-12-23T17:41:31.184Z,5.11
2022-12-23T17:45:25.995Z,5.10
2022-12-23T17:49:08.324Z,5.10
2022-12-23T17:52:51.732Z,5.11
2022-12-23T17:56:33.436Z,5.11
2022-12-23T18:00:25.170Z,5.11
2022-12-23T18:03:53.018Z,5.04
2022-12-23T18:07:30.223Z,4.97
2022-12-23T18:11:09.612Z,4.90
2022-12-23T18:14:50.168Z,4.89
2022-12-23T18:18:35.564Z,4.87
2022-12-23T18:22:05.526Z,4.84
2022-12-23T18:26:02.926Z,4.85
2022-12-23T18:29:44.982Z,4.84
2022-12-23T18:33:29.550Z,4.86
2022-12-23T18:36:52.378Z,4.88
2022-12-23T18:40:32.894Z,4.93
2022-12-23T18:44:26.240Z,4.96
2022-12-23T18:47:52.079Z,4.96
2022-12-23T18:51:46.173Z,4.95
2022-12-23T18:55:31.976Z,4.93
2022-12-23T18:58:57.725Z,4.93
2022-12-23T19:02:36.227Z,4.93
2022-12-23T19:06:13.510Z,4.91
2022-12-23T19:10:07.750Z,4.87
2022-12-23T19:13:30.011Z,4.83
2022-12-23T19:17:07.844Z,4.83
2022-12-23T19:20:46.803Z,4.86
2022-12-23T19:24:23.398Z,4.85
2022-12-23T19:28:00.959Z,4.79
2022-12-23T19:31:39.505Z,4.71
2022-12-23T19:35:16.200Z,4.66
2022-12-23T19:39:15.430Z,4.65
2022-12-23T19:42:38.952Z,4.64
2022-12-23T19:46:17.118Z,4.64
2022-12-23T19:49:53.976Z,4.64
2022-12-23T19:53:50.945Z,4.65
2022-12-23T19:57:32.892Z,4.65
2022-12-23T20:01:19.682Z,4.65
2022-12-23T20:05:01.414Z,4.65
2022-12-23T20:08:23.927Z,4.65
2022-12-23T20:12:01.965Z,4.65
2022-12-23T20:15:39.350Z,4.66
2022-12-23T20:19:39.071Z,4.65
2022-12-23T20:23:25.697Z,4.64
2022-12-23T20:26:48.185Z,4.61
2022-12-23T20:30:29.138Z,4.59
2022-12-23T20:34:05.768Z,4.64
2022-12-23T20:37:41.283Z,4.72
2022-12-23T20:41:22.320Z,4.75
2022-12-23T20:44:56.663Z,4.76
2022-12-23T20:48:34.770Z,4.78
2022-12-23T20:52:16.109Z,4.78
2022-12-23T20:56:12.949Z,4.73
2022-12-23T20:59:36.086Z,4.72
2022-12-23T21:03:32.684Z,4.78
2022-12-23T21:06:55.038Z,4.84
2022-12-23T21:10:33.042Z,4.92
2022-12-23T21:14:13.434Z,4.96
2022-12-23T21:17:48.145Z,4.94
2022-12-23T21:21:28.351Z,4.88
2022-12-23T21:25:22.313Z,4.84
2022-12-23T21:28:46.391Z,4.83
2022-12-23T21:32:22.182Z,4.80
2022-12-23T21:36:22.605Z,4.82
2022-12-23T21:40:04.841Z,4.88
2022-12-23T21:43:47.542Z,4.92
2022-12-23T21:47:09.448Z,5.01
2022-12-23T21:51:18.254Z,5.03
2022-12-23T21:54:40.991Z,4.99
2022-12-23T21:58:38.099Z,4.91
2022-12-23T22:02:00.612Z,4.85
2022-12-23T22:05:38.259Z,4.82
2022-12-23T22:09:18.658Z,4.85
2022-12-23T22:12:53.460Z,4.91
2022-12-23T22:16:31.869Z,4.98
2022-12-23T22:20:09.548Z,5.00
2022-12-23T22:23:47.579Z,5.02
2022-12-23T22:27:24.055Z,5.02
2022-12-23T22:31:08.175Z,5.00
2022-12-23T22:34:39.648Z,4.96
2022-12-23T22:38:17.221Z,4.91
2022-12-23T22:42:14.115Z,4.85
2022-12-23T22:45:37.871Z,4.82
2022-12-23T22:49:15.312Z,4.85
2022-12-23T22:52:52.105Z,4.87
2022-12-23T22:56:30.154Z,4.92
2022-12-23T23:00:26.448Z,4.97
2022-12-23T23:03:56.662Z,4.98
2022-12-23T23:07:26.912Z,4.94
2022-12-23T23:11:05.391Z,4.94
2022-12-23T23:15:01.099Z,4.93
2022-12-23T23:18:24.652Z,4.96
2022-12-23T23:22:01.205Z,5.03
2022-12-23T23:25:39.420Z,5.09
2022-12-23T23:29:16.576Z,5.13
2022-12-23T23:32:54.456Z,5.08
2022-12-23T23:36:50.868Z,4.98
2022-12-23T23:40:13.053Z,4.93
2022-12-23T23:44:10.878Z,4.92
2022-12-23T23:47:34.904Z,4.87
2022-12-23T23:51:12.617Z,4.81
2022-12-23T23:55:08.489Z,4.79
2022-12-23T23:58:30.843Z,4.79
